createdAt,value
2019-03-28T00:00:06.256Z,9.90
2019-03-28T00:02:35.138Z,9.43
2019-03-28T00:05:03.852Z,8.33
2019-03-28T00:07:32.562Z,9.10
2019-03-28T00:10:01.351Z,8.83
2019-03-28T00:12:30.070Z,10.47
2019-03-28T00:14:58.788Z,11.20
2019-03-28T00:17:27.671Z,13.33
2019-03-28T00:19:56.393Z,13.07
2019-03-28T00:22:30.902Z,8.50
2019-03-28T00:25:07.230Z,8.80
2019-03-28T00:27:35.997Z,12.20
2019-03-28T00:30:07.062Z,13.80
2019-03-28T00:32:35.778Z,11.70
2019-03-28T00:35:06.435Z,13.77
2019-03-28T00:37:35.292Z,12.73
2019-03-28T00:40:05.273Z,10.67
2019-03-28T00:42:35.099Z,12.43
2019-03-28T00:45:04.686Z,16.43
2019-03-28T00:47:33.414Z,16.80
2019-03-28T00:50:02.586Z,14.67
2019-03-28T00:52:31.317Z,16.30
2019-03-28T00:55:00.041Z,16.77
2019-03-28T00:57:28.844Z,20.43
2019-03-28T00:59:57.561Z,22.43
2019-03-28T01:02:26.288Z,19.40
2019-03-28T01:04:55.143Z,23.93
2019-03-28T01:07:24.277Z,21.77
2019-03-28T01:09:53.011Z,22.73
2019-03-28T01:12:21.783Z,21.73
2019-03-28T01:14:50.505Z,22.00
2019-03-28T01:17:19.227Z,18.50
2019-03-28T01:19:48.040Z,20.97
2019-03-28T01:22:16.836Z,19.57
2019-03-28T01:24:45.561Z,19.60
2019-03-28T01:27:14.477Z,21.47
2019-03-28T01:29:43.206Z,18.83
2019-03-28T01:32:11.927Z,18.53
2019-03-28T01:34:40.831Z,21.73
2019-03-28T01:37:09.554Z,18.83
2019-03-28T01:39:38.273Z,19.43
2019-03-28T01:42:07.040Z,17.13
2019-03-28T01:44:35.779Z,19.03
2019-03-28T01:47:04.491Z,19.77
2019-03-28T01:49:33.257Z,19.40
2019-03-28T01:52:04.284Z,19.40
2019-03-28T01:54:32.428Z,17.50
2019-03-28T01:57:10.778Z,15.90
2019-03-28T01:59:31.642Z,16.80
2019-03-28T02:02:00.369Z,18.70
2019-03-28T02:04:29.274Z,24.87
2019-03-28T02:06:58.014Z,38.80
2019-03-28T02:09:26.732Z,24.70
2019-03-28T02:11:55.587Z,30.90
2019-03-28T02:14:24.318Z,42.50
2019-03-28T02:16:53.039Z,29.07
2019-03-28T02:19:21.796Z,19.87
2019-03-28T02:21:50.524Z,15.83
2019-03-28T02:24:19.244Z,18.00
2019-03-28T02:26:48.014Z,13.60
2019-03-28T02:29:16.768Z,14.53
2019-03-28T02:31:45.497Z,15.43
2019-03-28T02:34:14.357Z,13.50
2019-03-28T02:36:43.069Z,13.87
2019-03-28T02:39:11.790Z,23.83
2019-03-28T02:41:40.621Z,19.53
2019-03-28T02:44:09.343Z,18.17
2019-03-28T02:46:38.061Z,16.23
2019-03-28T02:49:06.939Z,11.23
2019-03-28T02:51:35.659Z,10.70
2019-03-28T02:54:05.509Z,10.90
2019-03-28T02:56:34.415Z,9.77
2019-03-28T02:59:03.205Z,5.53
2019-03-28T03:01:31.939Z,9.77
2019-03-28T03:04:00.768Z,7.77
2019-03-28T03:06:29.494Z,7.50
2019-03-28T03:08:58.211Z,4.63
2019-03-28T03:11:27.059Z,5.17
2019-03-28T03:13:55.775Z,7.93
2019-03-28T03:16:24.494Z,4.73
2019-03-28T03:18:53.669Z,5.13
2019-03-28T03:21:22.498Z,5.93
2019-03-28T03:23:51.209Z,7.13
2019-03-28T03:26:20.323Z,5.23
2019-03-28T03:28:49.048Z,5.53
2019-03-28T03:31:21.237Z,6.77
2019-03-28T03:33:48.817Z,8.63
2019-03-28T03:36:17.523Z,4.93
2019-03-28T03:38:46.309Z,4.93
2019-03-28T03:41:15.212Z,10.00
2019-03-28T03:43:43.934Z,5.23
2019-03-28T03:46:12.644Z,6.13
2019-03-28T03:48:41.583Z,5.10
2019-03-28T03:51:10.296Z,8.57
2019-03-28T03:53:39.022Z,4.47
2019-03-28T03:56:07.895Z,4.83
2019-03-28T03:58:36.622Z,4.30
2019-03-28T04:01:05.318Z,4.70
2019-03-28T04:03:34.420Z,4.13
2019-03-28T04:06:03.364Z,3.30
2019-03-28T04:08:32.032Z,2.87
2019-03-28T04:11:00.783Z,4.80
2019-03-28T04:13:29.504Z,5.53
2019-03-28T04:15:58.216Z,3.43
2019-03-28T04:18:27.006Z,3.57
2019-03-28T04:20:55.723Z,7.47
2019-03-28T04:23:24.452Z,7.23
2019-03-28T04:25:53.228Z,8.53
2019-03-28T04:28:31.461Z,13.03
2019-03-28T04:30:52.387Z,7.30
2019-03-28T04:33:21.174Z,7.27
2019-03-28T04:35:49.890Z,5.60
2019-03-28T04:38:18.611Z,5.53
2019-03-28T04:40:47.505Z,5.57
2019-03-28T04:43:16.221Z,8.37
2019-03-28T04:45:44.933Z,4.20
2019-03-28T04:48:13.695Z,4.03
2019-03-28T04:50:42.413Z,5.17
2019-03-28T04:53:11.577Z,6.53
2019-03-28T04:55:40.527Z,9.83
2019-03-28T04:58:09.253Z,8.03
2019-03-28T05:00:37.964Z,4.30
2019-03-28T05:03:06.753Z,7.83
2019-03-28T05:05:35.460Z,3.33
2019-03-28T05:08:04.176Z,7.50
2019-03-28T05:10:33.295Z,7.20
2019-03-28T05:13:02.059Z,6.07
2019-03-28T05:15:30.776Z,4.00
2019-03-28T05:17:59.610Z,4.50
2019-03-28T05:20:28.322Z,4.93
2019-03-28T05:22:57.034Z,4.90
2019-03-28T05:25:26.258Z,4.40
2019-03-28T05:27:54.962Z,6.70
2019-03-28T05:30:23.682Z,4.13
2019-03-28T05:32:52.454Z,4.77
2019-03-28T05:35:21.192Z,5.03
2019-03-28T05:37:49.909Z,9.77
2019-03-28T05:40:18.684Z,6.37
2019-03-28T05:42:47.400Z,6.73
2019-03-28T05:45:16.116Z,7.83
2019-03-28T05:47:44.911Z,8.50
2019-03-28T05:50:15.025Z,4.10
2019-03-28T05:52:43.740Z,7.17
2019-03-28T05:55:12.953Z,5.90
2019-03-28T05:57:41.671Z,2.77
2019-03-28T06:00:11.435Z,7.87
2019-03-28T06:02:40.350Z,5.93
2019-03-28T06:05:09.166Z,7.20
2019-03-28T06:07:37.883Z,7.67
2019-03-28T06:10:08.479Z,8.23
2019-03-28T06:12:37.198Z,5.87
2019-03-28T06:15:09.576Z,8.13
2019-03-28T06:17:38.433Z,6.10
2019-03-28T06:20:08.447Z,6.13
2019-03-28T06:22:37.155Z,8.87
2019-03-28T06:25:06.398Z,12.07
2019-03-28T06:27:35.232Z,12.70
2019-03-28T06:30:05.056Z,8.87
2019-03-28T06:32:42.868Z,7.87
2019-03-28T06:35:05.852Z,5.37
2019-03-28T06:37:34.572Z,9.73
2019-03-28T06:40:03.395Z,6.00
2019-03-28T06:42:32.117Z,6.03
2019-03-28T06:45:03.519Z,7.27
2019-03-28T06:47:31.300Z,5.50
2019-03-28T06:50:00.021Z,6.47
2019-03-28T06:52:28.736Z,8.73
2019-03-28T06:54:57.488Z,8.07
2019-03-28T06:57:26.200Z,7.97
2019-03-28T06:59:54.918Z,5.70
2019-03-28T07:02:23.816Z,13.10
2019-03-28T07:04:52.531Z,6.63
2019-03-28T07:07:21.243Z,5.20
2019-03-28T07:09:50.435Z,6.13
2019-03-28T07:12:19.153Z,7.67
2019-03-28T07:14:47.880Z,7.07
2019-03-28T07:17:17.023Z,5.40
2019-03-28T07:19:45.750Z,5.10
2019-03-28T07:22:14.470Z,5.00
2019-03-28T07:24:43.279Z,6.77
2019-03-28T07:27:11.990Z,8.37
2019-03-28T07:29:50.610Z,11.60
2019-03-28T07:32:11.305Z,10.13
2019-03-28T07:34:40.026Z,12.10
2019-03-28T07:37:08.881Z,5.53
2019-03-28T07:39:38.149Z,7.70
2019-03-28T07:42:06.897Z,9.43
2019-03-28T07:44:37.559Z,11.93
2019-03-28T07:47:06.114Z,15.47
2019-03-28T07:49:37.498Z,12.47
2019-03-28T07:52:05.371Z,6.70
2019-03-28T07:54:34.158Z,12.07
2019-03-28T07:57:02.883Z,7.83
2019-03-28T07:59:31.599Z,6.20
2019-03-28T08:02:00.499Z,9.83
2019-03-28T08:04:29.617Z,6.57
2019-03-28T08:06:58.343Z,6.27
2019-03-28T08:09:36.535Z,5.77
2019-03-28T08:11:57.571Z,8.17
2019-03-28T08:14:26.289Z,6.07
2019-03-28T08:16:55.061Z,11.23
2019-03-28T08:19:23.788Z,7.20
2019-03-28T08:21:52.507Z,7.20
2019-03-28T08:24:21.310Z,7.53
2019-03-28T08:26:50.033Z,7.80
2019-03-28T08:29:18.765Z,5.37
2019-03-28T08:31:49.223Z,6.67
2019-03-28T08:34:18.685Z,6.03
2019-03-28T08:36:48.101Z,4.40
2019-03-28T08:39:17.978Z,8.77
2019-03-28T08:41:51.163Z,9.40
2019-03-28T08:44:22.561Z,5.40
2019-03-28T08:46:50.635Z,5.70
2019-03-28T08:49:19.369Z,6.20
2019-03-28T08:51:48.121Z,7.10
2019-03-28T08:54:17.057Z,16.80
2019-03-28T08:56:45.779Z,5.87
2019-03-28T08:59:14.501Z,5.50
2019-03-28T09:01:43.333Z,3.33
2019-03-28T09:04:13.634Z,5.93
2019-03-28T09:06:42.360Z,7.40
2019-03-28T09:09:11.230Z,14.90
2019-03-28T09:11:39.949Z,11.27
2019-03-28T09:14:08.677Z,4.50
2019-03-28T09:16:37.573Z,4.50
2019-03-28T09:19:07.889Z,13.83
2019-03-28T09:21:36.629Z,5.53
2019-03-28T09:24:05.879Z,4.33
2019-03-28T09:26:34.601Z,3.80
2019-03-28T09:29:03.361Z,4.93
2019-03-28T09:31:32.230Z,5.70
2019-03-28T09:34:00.973Z,16.63
2019-03-28T09:36:29.696Z,4.87
2019-03-28T09:38:58.980Z,4.50
2019-03-28T09:41:27.696Z,7.53
2019-03-28T09:43:56.438Z,5.57
2019-03-28T09:46:36.057Z,5.03
2019-03-28T09:49:26.943Z,5.00
2019-03-28T09:51:55.785Z,4.93
2019-03-28T09:54:24.580Z,5.53
2019-03-28T09:56:53.313Z,3.67
2019-03-28T09:59:22.181Z,3.53
2019-03-28T10:01:50.901Z,7.13
2019-03-28T10:04:19.624Z,8.27
2019-03-28T10:06:48.387Z,3.53
2019-03-28T10:09:17.141Z,3.00
2019-03-28T10:11:45.855Z,4.53
2019-03-28T10:14:14.664Z,4.30
2019-03-28T10:16:43.387Z,3.23
2019-03-28T10:19:12.495Z,4.03
2019-03-28T10:21:41.579Z,3.13
2019-03-28T10:24:10.299Z,6.93
2019-03-28T10:26:39.528Z,8.90
2019-03-28T10:29:08.660Z,3.00
2019-03-28T10:31:37.379Z,5.87
2019-03-28T10:34:06.106Z,5.80
2019-03-28T10:36:34.866Z,69.57
2019-03-28T10:39:04.996Z,6.03
2019-03-28T10:41:33.729Z,7.70
2019-03-28T10:44:02.559Z,14.33
2019-03-28T10:46:31.379Z,4.73
2019-03-28T10:49:00.102Z,11.00
2019-03-28T10:51:29.069Z,6.63
2019-03-28T10:53:57.787Z,6.43
2019-03-28T10:56:26.539Z,8.17
2019-03-28T10:58:55.321Z,7.00
2019-03-28T11:01:41.525Z,4.70
2019-03-28T11:03:54.495Z,5.20
2019-03-28T11:06:23.302Z,5.70
2019-03-28T11:08:52.026Z,7.80
2019-03-28T11:11:20.752Z,7.40
2019-03-28T11:13:49.780Z,27.20
2019-03-28T11:16:18.510Z,11.07
2019-03-28T11:18:47.234Z,15.23
2019-03-28T11:21:16.013Z,9.50
2019-03-28T11:23:44.738Z,5.67
2019-03-28T11:26:13.498Z,4.10
2019-03-28T11:28:42.527Z,5.30
2019-03-28T11:31:11.196Z,13.17
2019-03-28T11:33:39.921Z,7.50
2019-03-28T11:36:08.680Z,5.70
2019-03-28T11:38:37.409Z,5.83
2019-03-28T11:41:06.132Z,4.57
2019-03-28T11:43:35.094Z,5.17
2019-03-28T11:46:03.837Z,7.33
2019-03-28T11:48:32.541Z,5.27
2019-03-28T11:51:01.341Z,7.00
2019-03-28T11:53:29.893Z,5.07
2019-03-28T11:55:58.598Z,5.70
2019-03-28T11:58:27.488Z,6.23
2019-03-28T12:00:56.215Z,5.03
2019-03-28T12:03:24.946Z,9.03
2019-03-28T12:05:53.738Z,58.00
2019-03-28T12:08:22.455Z,6.97
2019-03-28T12:10:51.173Z,5.87
2019-03-28T12:13:20.329Z,4.17
2019-03-28T12:15:49.346Z,7.97
2019-03-28T12:18:18.073Z,6.80
2019-03-28T12:20:46.856Z,5.73
2019-03-28T12:23:15.577Z,4.70
2019-03-28T12:25:47.248Z,7.80
2019-03-28T12:28:14.897Z,4.10
2019-03-28T12:30:43.848Z,4.53
2019-03-28T12:33:12.813Z,5.90
2019-03-28T12:35:41.676Z,4.73
2019-03-28T12:38:10.394Z,6.70
2019-03-28T12:40:39.118Z,4.93
2019-03-28T12:43:07.931Z,4.37
2019-03-28T12:45:36.661Z,5.57
2019-03-28T12:48:05.383Z,4.23
2019-03-28T12:50:34.261Z,4.87
2019-03-28T12:53:02.985Z,9.13
2019-03-28T12:55:31.709Z,37.03
2019-03-28T12:58:00.626Z,7.87
2019-03-28T13:00:36.947Z,6.57
2019-03-28T13:03:05.926Z,5.83
2019-03-28T13:05:35.031Z,4.00
2019-03-28T13:08:04.245Z,4.13
2019-03-28T13:10:33.057Z,38.07
2019-03-28T13:13:01.787Z,8.13
2019-03-28T13:15:30.510Z,6.03
2019-03-28T13:17:59.589Z,4.70
2019-03-28T13:20:28.308Z,8.80
2019-03-28T13:22:57.037Z,23.00
2019-03-28T13:25:25.802Z,10.50
2019-03-28T13:27:54.525Z,6.83
2019-03-28T13:30:23.349Z,14.90
2019-03-28T13:32:52.111Z,6.07
2019-03-28T13:35:20.834Z,31.13
2019-03-28T13:37:49.558Z,16.43
2019-03-28T13:40:18.360Z,11.00
2019-03-28T13:42:47.083Z,31.77
2019-03-28T13:45:16.217Z,13.73
2019-03-28T13:47:45.006Z,8.47
2019-03-28T13:50:14.947Z,11.30
2019-03-28T13:52:43.682Z,10.00
2019-03-28T13:55:12.555Z,14.37
2019-03-28T13:57:43.396Z,8.70
2019-03-28T14:00:12.523Z,8.53
2019-03-28T14:02:54.274Z,5.57
2019-03-28T14:05:13.153Z,4.40
2019-03-28T14:07:42.130Z,6.70
2019-03-28T14:10:11.109Z,7.37
2019-03-28T14:12:39.834Z,6.30
2019-03-28T14:15:08.861Z,8.63
2019-03-28T14:17:37.703Z,10.87
2019-03-28T14:20:07.231Z,17.80
2019-03-28T14:22:37.632Z,15.37
2019-03-28T14:25:07.522Z,10.03
2019-03-28T14:27:36.227Z,9.57
2019-03-28T14:30:09.773Z,8.37
2019-03-28T14:32:52.140Z,11.57
2019-03-28T14:35:09.348Z,30.30
2019-03-28T14:37:40.631Z,5.90
2019-03-28T14:40:12.266Z,7.67
2019-03-28T14:42:41.267Z,10.73
2019-03-28T14:45:10.992Z,8.33
2019-03-28T14:47:39.959Z,23.27
2019-03-28T14:50:10.570Z,7.10
2019-03-28T14:52:39.431Z,8.67
2019-03-28T14:55:08.385Z,6.47
2019-03-28T14:57:37.108Z,9.67
2019-03-28T15:00:11.772Z,6.73
2019-03-28T15:02:40.547Z,5.37
2019-03-28T15:05:09.473Z,12.27
2019-03-28T15:07:38.207Z,7.23
2019-03-28T15:10:08.076Z,23.70
2019-03-28T15:12:36.792Z,15.20
2019-03-28T15:15:06.521Z,7.67
2019-03-28T15:17:35.658Z,10.60
2019-03-28T15:20:06.501Z,6.77
2019-03-28T15:22:35.227Z,22.97
2019-03-28T15:25:04.908Z,15.07
2019-03-28T15:27:33.629Z,6.53
2019-03-28T15:30:02.353Z,14.23
2019-03-28T15:32:31.121Z,13.70
2019-03-28T15:35:01.409Z,6.57
2019-03-28T15:37:30.131Z,15.43
2019-03-28T15:39:59.102Z,9.07
2019-03-28T15:42:28.195Z,29.23
2019-03-28T15:44:56.938Z,14.87
2019-03-28T15:47:25.795Z,24.07
2019-03-28T15:49:54.514Z,20.87
2019-03-28T15:52:23.252Z,48.67
2019-03-28T15:54:52.054Z,5.37
2019-03-28T15:57:20.786Z,15.63
2019-03-28T15:59:49.510Z,8.60
2019-03-28T16:02:18.371Z,14.80
2019-03-28T16:04:47.102Z,14.77
2019-03-28T16:07:15.826Z,37.57
2019-03-28T16:09:44.732Z,9.80
2019-03-28T16:12:13.469Z,22.87
2019-03-28T16:14:42.226Z,10.37
2019-03-28T16:17:11.161Z,5.50
2019-03-28T16:19:39.903Z,39.27
2019-03-28T16:22:08.614Z,14.90
2019-03-28T16:24:37.498Z,6.23
2019-03-28T16:27:06.230Z,49.53
2019-03-28T16:29:34.953Z,18.43
2019-03-28T16:32:03.835Z,23.97
2019-03-28T16:34:39.414Z,8.07
2019-03-28T16:37:08.413Z,12.63
2019-03-28T16:39:37.801Z,21.37
2019-03-28T16:42:06.634Z,25.50
2019-03-28T16:44:35.550Z,26.37
2019-03-28T16:47:04.288Z,107.53
2019-03-28T16:49:33.009Z,76.37
2019-03-28T16:52:01.890Z,78.07
2019-03-28T16:54:30.616Z,38.53
2019-03-28T16:56:59.875Z,54.00
2019-03-28T16:59:28.754Z,50.07
2019-03-28T17:01:57.479Z,37.37
2019-03-28T17:04:26.589Z,33.23
2019-03-28T17:06:55.851Z,30.23
2019-03-28T17:09:25.582Z,15.47
2019-03-28T17:11:54.300Z,13.83
2019-03-28T17:14:23.093Z,15.40
2019-03-28T17:16:51.811Z,18.23
2019-03-28T17:19:20.533Z,20.47
2019-03-28T17:21:50.720Z,18.23
2019-03-28T17:24:19.446Z,30.73
2019-03-28T17:26:48.173Z,19.07
2019-03-28T17:29:16.946Z,27.83
2019-03-28T17:31:45.664Z,34.30
2019-03-28T17:34:14.387Z,51.37
2019-03-28T17:36:43.572Z,47.00
2019-03-28T17:39:12.298Z,94.27
2019-03-28T17:41:41.029Z,25.57
2019-03-28T17:44:09.791Z,36.17
2019-03-28T17:46:38.597Z,36.77
2019-03-28T17:49:08.303Z,34.37
2019-03-28T17:51:40.320Z,38.67
2019-03-28T17:54:07.546Z,47.83
2019-03-28T17:56:36.274Z,53.80
2019-03-28T17:59:05.071Z,55.17
2019-03-28T18:01:33.800Z,63.00
2019-03-28T18:04:02.521Z,79.40
2019-03-28T18:06:31.453Z,96.60
2019-03-28T18:09:00.221Z,155.13
2019-03-28T18:11:28.961Z,233.50
2019-03-28T18:13:57.827Z,225.97
2019-03-28T18:16:26.608Z,218.33
2019-03-28T18:18:55.300Z,246.37
2019-03-28T18:21:24.213Z,233.53
2019-03-28T18:23:53.898Z,236.27
2019-03-28T18:26:22.641Z,245.53
2019-03-28T18:28:51.438Z,242.40
2019-03-28T18:31:20.172Z,234.50
2019-03-28T18:33:48.905Z,227.73
2019-03-28T18:36:17.669Z,149.70
2019-03-28T18:38:46.393Z,58.60
2019-03-28T18:41:15.122Z,44.93
2019-03-28T18:43:43.988Z,41.03
2019-03-28T18:46:14.825Z,32.43
2019-03-28T18:48:43.177Z,28.37
2019-03-28T18:51:12.070Z,15.27
2019-03-28T18:53:40.793Z,15.40
2019-03-28T18:56:09.513Z,13.67
2019-03-28T18:58:38.440Z,17.33
2019-03-28T19:01:07.271Z,18.87
2019-03-28T19:03:36.003Z,20.80
2019-03-28T19:06:04.861Z,26.67
2019-03-28T19:08:33.644Z,33.07
2019-03-28T19:11:03.268Z,37.63
2019-03-28T19:13:33.260Z,35.57
2019-03-28T19:16:01.983Z,27.57
2019-03-28T19:18:33.456Z,32.70
2019-03-28T19:21:02.578Z,192.20
2019-03-28T19:23:31.306Z,91.40
2019-03-28T19:26:01.048Z,26.80
2019-03-28T19:28:30.195Z,17.77
2019-03-28T19:30:58.915Z,10.07
2019-03-28T19:33:28.236Z,8.73
2019-03-28T19:36:01.137Z,14.67
2019-03-28T19:38:28.509Z,12.57
2019-03-28T19:40:57.231Z,9.20
2019-03-28T19:43:26.362Z,9.30
2019-03-28T19:45:55.495Z,5.80
2019-03-28T19:48:24.193Z,6.60
2019-03-28T19:50:52.995Z,4.40
2019-03-28T19:53:21.713Z,6.17
2019-03-28T19:55:50.429Z,4.23
2019-03-28T19:58:19.712Z,5.57
2019-03-28T20:00:48.429Z,4.43
2019-03-28T20:03:17.148Z,3.50
2019-03-28T20:05:47.867Z,9.27
2019-03-28T20:08:18.665Z,9.80
2019-03-28T20:10:47.123Z,5.23
2019-03-28T20:13:15.959Z,8.93
2019-03-28T20:15:44.684Z,7.53
2019-03-28T20:18:13.399Z,5.80
2019-03-28T20:20:42.187Z,8.40
2019-03-28T20:23:10.903Z,5.03
2019-03-28T20:25:42.704Z,8.63
2019-03-28T20:28:10.234Z,5.27
2019-03-28T20:30:38.953Z,3.43
2019-03-28T20:33:07.668Z,6.03
2019-03-28T20:35:36.507Z,6.13
2019-03-28T20:38:05.334Z,6.50
2019-03-28T20:40:34.056Z,3.83
2019-03-28T20:43:02.915Z,3.13
2019-03-28T20:45:32.036Z,5.37
2019-03-28T20:48:00.748Z,8.00
2019-03-28T20:50:31.705Z,6.17
2019-03-28T20:52:59.953Z,3.70
2019-03-28T20:55:28.669Z,5.37
2019-03-28T20:57:57.449Z,3.93
2019-03-28T21:00:39.070Z,4.90
2019-03-28T21:03:08.679Z,3.37
2019-03-28T21:05:37.413Z,3.53
2019-03-28T21:08:06.131Z,4.87
2019-03-28T21:10:35.114Z,4.40
2019-03-28T21:13:03.836Z,5.10
2019-03-28T21:15:32.550Z,5.93
2019-03-28T21:18:01.392Z,4.63
2019-03-28T21:20:30.116Z,4.00
2019-03-28T21:22:58.827Z,8.30
2019-03-28T21:25:29.802Z,3.53
2019-03-28T21:27:58.838Z,4.30
2019-03-28T21:30:27.858Z,3.67
2019-03-28T21:32:57.754Z,6.83
2019-03-28T21:35:26.921Z,3.47
2019-03-28T21:37:55.641Z,4.07
2019-03-28T21:40:24.501Z,3.90
2019-03-28T21:42:53.228Z,9.00
2019-03-28T21:45:21.954Z,12.67
2019-03-28T21:47:50.921Z,16.50
2019-03-28T21:50:19.835Z,9.67
2019-03-28T21:52:48.550Z,5.03
2019-03-28T21:55:17.621Z,5.70
2019-03-28T21:57:46.359Z,5.90
2019-03-28T22:00:15.377Z,7.87
2019-03-28T22:02:53.818Z,4.47
2019-03-28T22:05:22.543Z,8.10
2019-03-28T22:07:51.267Z,7.23
2019-03-28T22:10:20.076Z,11.30
2019-03-28T22:12:48.797Z,10.60
2019-03-28T22:15:17.521Z,14.67
2019-03-28T22:17:46.317Z,12.53
2019-03-28T22:20:15.125Z,9.63
2019-03-28T22:22:50.008Z,8.33
2019-03-28T22:25:18.769Z,5.63
2019-03-28T22:27:47.702Z,5.73
2019-03-28T22:30:17.944Z,7.13
2019-03-28T22:32:47.075Z,4.80
2019-03-28T22:35:15.795Z,5.87
2019-03-28T22:37:44.511Z,7.97
2019-03-28T22:40:13.470Z,7.27
2019-03-28T22:42:42.180Z,10.53
2019-03-28T22:45:12.413Z,10.43
2019-03-28T22:47:41.193Z,9.63
2019-03-28T22:50:10.214Z,12.60
2019-03-28T22:52:38.945Z,14.23
2019-03-28T22:55:09.197Z,12.33
2019-03-28T22:57:37.919Z,10.47
2019-03-28T23:00:12.633Z,8.77
2019-03-28T23:02:41.726Z,11.27
2019-03-28T23:05:11.140Z,9.17
2019-03-28T23:07:40.860Z,6.50
2019-03-28T23:10:10.622Z,7.63
2019-03-28T23:12:39.336Z,5.80
2019-03-28T23:15:09.251Z,8.63
2019-03-28T23:17:38.235Z,7.00
2019-03-28T23:20:10.638Z,9.03
2019-03-28T23:22:39.451Z,8.90
2019-03-28T23:25:09.023Z,7.40
2019-03-28T23:27:37.734Z,5.87
2019-03-28T23:30:08.656Z,6.23
2019-03-28T23:32:38.173Z,33.33
2019-03-28T23:35:07.736Z,41.00
2019-03-28T23:37:36.462Z,53.47
2019-03-28T23:40:07.041Z,64.57
2019-03-28T23:42:35.763Z,61.43
2019-03-28T23:45:06.637Z,41.20
2019-03-28T23:47:35.394Z,34.80
2019-03-28T23:50:05.416Z,26.63
2019-03-28T23:52:34.148Z,29.80
2019-03-28T23:55:03.024Z,18.17
2019-03-28T23:57:31.755Z,17.77
